createdAt,value
2022-12-24T00:01:05.984Z,10.80
2022-12-24T00:03:34.587Z,10.80
2022-12-24T00:06:17.303Z,10.80
2022-12-24T00:08:47.693Z,10.80
2022-12-24T00:11:15.000Z,10.80
2022-12-24T00:13:41.849Z,10.80
2022-12-24T00:16:09.219Z,10.80
2022-12-24T00:18:40.080Z,10.80
2022-12-24T00:21:13.117Z,10.80
2022-12-24T00:23:40.964Z,10.80
2022-12-24T00:26:08.045Z,10.80
2022-12-24T00:28:35.431Z,10.80
2022-12-24T00:31:12.097Z,10.80
2022-12-24T00:33:39.292Z,10.80
2022-12-24T00:36:06.829Z,10.90
2022-12-24T00:38:34.122Z,10.90
2022-12-24T00:41:05.303Z,10.90
2022-12-24T00:43:32.844Z,10.90
2022-12-24T00:46:00.083Z,10.90
2022-12-24T00:48:27.085Z,10.90
2022-12-24T00:50:54.359Z,10.90
2022-12-24T00:53:21.367Z,10.90
2022-12-24T00:55:48.234Z,10.90
2022-12-24T00:58:16.281Z,10.90
2022-12-24T01:00:43.094Z,10.90
2022-12-24T01:03:10.140Z,10.80
2022-12-24T01:05:37.134Z,10.90
2022-12-24T01:08:04.334Z,10.80
2022-12-24T01:10:31.238Z,10.80
2022-12-24T01:13:00.838Z,10.80
2022-12-24T01:15:27.700Z,10.70
2022-12-24T01:17:54.903Z,10.70
2022-12-24T01:20:21.972Z,10.70
2022-12-24T01:22:49.351Z,10.70
2022-12-24T01:25:16.383Z,10.60
2022-12-24T01:27:43.360Z,10.60
2022-12-24T01:30:15.119Z,10.60
2022-12-24T01:32:42.138Z,10.60
2022-12-24T01:35:10.612Z,10.60
2022-12-24T01:37:37.522Z,10.60
2022-12-24T01:40:27.636Z,10.60
2022-12-24T01:43:13.718Z,10.70
2022-12-24T01:45:45.366Z,10.60
2022-12-24T01:48:27.754Z,10.50
2022-12-24T01:51:28.411Z,10.50
2022-12-24T01:54:01.105Z,10.50
2022-12-24T01:56:30.608Z,10.40
2022-12-24T01:59:04.805Z,10.40
2022-12-24T02:01:31.859Z,10.40
2022-12-24T02:03:59.835Z,10.40
2022-12-24T02:06:27.265Z,10.40
2022-12-24T02:08:55.099Z,10.30
2022-12-24T02:11:22.804Z,10.30
2022-12-24T02:14:01.056Z,10.30
2022-12-24T02:16:53.852Z,10.30
2022-12-24T02:19:51.716Z,10.20
2022-12-24T02:22:39.994Z,10.30
2022-12-24T02:25:15.693Z,10.30
2022-12-24T02:28:04.944Z,10.30
2022-12-24T02:31:04.032Z,10.30
2022-12-24T02:33:45.424Z,10.20
2022-12-24T02:36:24.255Z,10.30
2022-12-24T02:39:05.111Z,10.30
2022-12-24T02:42:08.733Z,10.40
2022-12-24T02:44:44.025Z,10.30
2022-12-24T02:47:12.087Z,10.30
2022-12-24T02:49:39.072Z,10.30
2022-12-24T02:52:06.408Z,10.20
2022-12-24T02:54:33.873Z,10.10
2022-12-24T02:57:18.523Z,10.10
2022-12-24T03:00:11.781Z,10.00
2022-12-24T03:03:12.824Z,10.00
2022-12-24T03:05:46.467Z,9.90
2022-12-24T03:08:25.427Z,9.90
2022-12-24T03:10:55.714Z,9.90
2022-12-24T03:13:24.488Z,9.90
2022-12-24T03:15:52.239Z,9.80
2022-12-24T03:18:25.831Z,9.70
2022-12-24T03:21:13.626Z,9.80
2022-12-24T03:23:40.848Z,9.70
2022-12-24T03:26:11.386Z,9.60
2022-12-24T03:28:40.423Z,9.60
2022-12-24T03:31:08.066Z,9.60
2022-12-24T03:33:35.472Z,9.60
2022-12-24T03:36:03.809Z,9.60
2022-12-24T03:38:31.214Z,9.60
2022-12-24T03:40:58.110Z,9.60
2022-12-24T03:43:25.106Z,9.60
2022-12-24T03:45:52.186Z,9.70
2022-12-24T03:48:19.157Z,9.80
2022-12-24T03:50:46.074Z,9.80
2022-12-24T03:53:12.921Z,9.90
2022-12-24T03:55:40.521Z,9.80
2022-12-24T03:58:07.798Z,9.90
2022-12-24T04:00:34.798Z,9.90
2022-12-24T04:03:02.068Z,9.90
2022-12-24T04:05:31.981Z,10.00
2022-12-24T04:07:58.883Z,9.90
2022-12-24T04:10:25.702Z,9.90
2022-12-24T04:12:52.868Z,9.90
2022-12-24T04:15:19.761Z,9.90
2022-12-24T04:17:47.044Z,9.90
2022-12-24T04:20:14.067Z,9.80
2022-12-24T04:22:42.192Z,9.80
2022-12-24T04:25:09.724Z,9.70
2022-12-24T04:27:36.655Z,9.70
2022-12-24T04:30:03.925Z,9.70
2022-12-24T04:32:30.809Z,9.60
2022-12-24T04:34:57.749Z,9.60
2022-12-24T04:37:24.974Z,9.60
2022-12-24T04:39:51.881Z,9.80
2022-12-24T04:42:18.847Z,9.70
2022-12-24T04:44:45.753Z,9.70
2022-12-24T04:47:12.914Z,9.80
2022-12-24T04:49:40.005Z,9.90
2022-12-24T04:52:06.860Z,9.90
2022-12-24T04:54:33.773Z,9.90
2022-12-24T04:57:00.968Z,9.90
2022-12-24T04:59:27.836Z,9.90
2022-12-24T05:01:54.750Z,9.90
2022-12-24T05:04:21.839Z,9.90
2022-12-24T05:06:48.695Z,10.00
2022-12-24T05:09:15.563Z,10.10
2022-12-24T05:11:42.601Z,10.10
2022-12-24T05:14:09.520Z,10.20
2022-12-24T05:16:39.083Z,10.20
2022-12-24T05:19:06.359Z,10.20
2022-12-24T05:21:33.285Z,10.20
2022-12-24T05:24:18.974Z,10.30
2022-12-24T05:26:54.405Z,10.40
2022-12-24T05:29:22.464Z,10.40
2022-12-24T05:31:49.880Z,10.40
2022-12-24T05:34:17.353Z,10.50
2022-12-24T05:36:45.038Z,10.50
2022-12-24T05:39:17.098Z,10.50
2022-12-24T05:41:44.762Z,10.50
2022-12-24T05:44:11.700Z,10.50
2022-12-24T05:46:38.733Z,10.50
2022-12-24T05:49:06.150Z,10.50
2022-12-24T05:51:33.030Z,10.50
2022-12-24T05:54:00.310Z,10.50
2022-12-24T05:56:27.393Z,10.50
2022-12-24T05:58:54.955Z,10.50
2022-12-24T06:01:22.950Z,10.50
2022-12-24T06:03:50.580Z,10.50
2022-12-24T06:06:21.310Z,10.60
2022-12-24T06:08:49.363Z,10.60
2022-12-24T06:11:18.700Z,10.70
2022-12-24T06:13:45.904Z,10.60
2022-12-24T06:16:17.485Z,10.60
2022-12-24T06:18:45.527Z,10.60
2022-12-24T06:21:13.048Z,10.60
2022-12-24T06:23:41.827Z,10.60
2022-12-24T06:26:09.953Z,10.60
2022-12-24T06:28:38.534Z,10.70
2022-12-24T06:31:07.931Z,10.70
2022-12-24T06:33:35.287Z,10.60
2022-12-24T06:36:02.395Z,10.70
2022-12-24T06:38:32.305Z,10.70
2022-12-24T06:40:59.618Z,10.70
2022-12-24T06:43:26.622Z,10.70
2022-12-24T06:45:53.655Z,10.70
2022-12-24T06:48:20.549Z,10.70
2022-12-24T06:50:47.648Z,10.70
2022-12-24T06:53:14.646Z,10.70
2022-12-24T06:55:41.603Z,10.70
2022-12-24T06:58:08.464Z,10.80
2022-12-24T07:00:35.626Z,10.80
2022-12-24T07:03:02.565Z,10.80
2022-12-24T07:05:30.464Z,10.80
2022-12-24T07:07:57.754Z,10.80
2022-12-24T07:10:25.227Z,10.80
2022-12-24T07:12:52.092Z,10.80
2022-12-24T07:15:19.018Z,10.80
2022-12-24T07:17:46.185Z,10.80
2022-12-24T07:20:15.110Z,10.80
2022-12-24T07:22:43.597Z,10.80
2022-12-24T07:25:11.205Z,10.80
2022-12-24T07:27:39.646Z,10.80
2022-12-24T07:30:07.730Z,10.80
2022-12-24T07:32:34.747Z,10.80
2022-12-24T07:35:01.649Z,10.80
2022-12-24T07:37:28.477Z,10.80
2022-12-24T07:39:55.502Z,10.80
2022-12-24T07:42:22.377Z,10.80
2022-12-24T07:44:49.377Z,10.80
2022-12-24T07:47:16.721Z,10.80
2022-12-24T07:49:44.007Z,10.80
2022-12-24T07:52:11.036Z,10.70
2022-12-24T07:54:37.917Z,10.70
2022-12-24T07:57:04.875Z,10.70
2022-12-24T07:59:31.991Z,10.70
2022-12-24T08:01:58.998Z,10.70
2022-12-24T08:04:26.160Z,10.70
2022-12-24T08:06:52.982Z,10.70
2022-12-24T08:09:19.884Z,10.70
2022-12-24T08:11:51.926Z,10.70
2022-12-24T08:14:20.215Z,10.80
2022-12-24T08:16:47.267Z,10.80
2022-12-24T08:19:14.148Z,10.70
2022-12-24T08:21:41.140Z,10.80
2022-12-24T08:24:08.410Z,10.80
2022-12-24T08:26:35.401Z,10.90
2022-12-24T08:29:04.031Z,10.80
2022-12-24T08:31:36.626Z,10.80
2022-12-24T08:34:05.043Z,10.80
2022-12-24T08:36:32.565Z,10.80
2022-12-24T08:38:59.613Z,10.80
2022-12-24T08:41:26.506Z,10.80
2022-12-24T08:43:53.378Z,10.80
2022-12-24T08:46:20.508Z,10.80
2022-12-24T08:48:47.423Z,10.80
2022-12-24T08:51:14.564Z,10.80
2022-12-24T08:53:41.461Z,10.80
2022-12-24T08:56:10.872Z,10.80
2022-12-24T08:58:38.448Z,10.80
2022-12-24T09:01:14.046Z,10.90
2022-12-24T09:03:41.799Z,10.90
2022-12-24T09:06:10.501Z,10.90
2022-12-24T09:08:37.595Z,10.90
2022-12-24T09:11:16.535Z,10.90
2022-12-24T09:13:44.678Z,10.90
2022-12-24T09:16:12.201Z,11.00
2022-12-24T09:18:40.438Z,11.00
2022-12-24T09:21:14.448Z,11.10
2022-12-24T09:23:43.298Z,11.10
2022-12-24T09:26:20.245Z,11.20
2022-12-24T09:28:47.802Z,11.20
2022-12-24T09:31:15.625Z,11.20
2022-12-24T09:33:44.567Z,11.20
2022-12-24T09:36:11.680Z,11.30
2022-12-24T09:38:40.303Z,11.40
2022-12-24T09:41:42.933Z,11.30
2022-12-24T09:44:34.973Z,11.30
2022-12-24T09:47:11.148Z,11.30
2022-12-24T09:49:43.948Z,11.30
2022-12-24T09:52:23.140Z,11.30
2022-12-24T09:55:32.241Z,11.30
2022-12-24T09:58:02.427Z,11.30
2022-12-24T10:00:38.547Z,11.40
2022-12-24T10:03:18.610Z,11.30
2022-12-24T10:05:53.326Z,11.40
2022-12-24T10:08:26.026Z,11.40
2022-12-24T10:10:54.421Z,11.40
2022-12-24T10:13:49.603Z,11.50
2022-12-24T10:16:29.025Z,11.50
2022-12-24T10:19:17.407Z,11.60
2022-12-24T10:21:50.399Z,11.60
2022-12-24T10:24:24.405Z,11.70
2022-12-24T10:27:12.270Z,11.80
2022-12-24T10:29:46.237Z,11.80
2022-12-24T10:32:27.536Z,11.90
2022-12-24T10:35:08.570Z,11.90
2022-12-24T10:37:35.474Z,11.90
2022-12-24T10:40:03.819Z,11.90
2022-12-24T10:42:50.131Z,11.80
2022-12-24T10:45:21.854Z,11.80
2022-12-24T10:47:52.904Z,11.90
2022-12-24T10:50:25.644Z,11.90
2022-12-24T10:52:55.626Z,11.90
2022-12-24T10:55:24.405Z,11.80
2022-12-24T10:58:07.502Z,11.90
2022-12-24T11:00:42.693Z,11.80
2022-12-24T11:03:12.883Z,11.80
2022-12-24T11:05:40.764Z,11.90
2022-12-24T11:08:17.827Z,12.00
2022-12-24T11:11:14.784Z,12.00
2022-12-24T11:13:46.329Z,12.00
2022-12-24T11:16:25.496Z,12.10
2022-12-24T11:18:54.551Z,12.10
2022-12-24T11:21:33.678Z,12.20
2022-12-24T11:24:12.604Z,12.20
2022-12-24T11:26:41.743Z,12.10
2022-12-24T11:29:15.004Z,12.20
2022-12-24T11:31:43.703Z,12.20
2022-12-24T11:34:22.879Z,12.20
2022-12-24T11:36:51.438Z,12.30
2022-12-24T11:39:24.369Z,12.30
2022-12-24T11:41:53.034Z,12.30
2022-12-24T11:44:28.444Z,12.40
2022-12-24T11:46:57.758Z,12.40
2022-12-24T11:49:30.287Z,12.40
2022-12-24T11:52:12.321Z,12.30
2022-12-24T11:55:21.247Z,12.40
2022-12-24T11:57:58.125Z,12.40
2022-12-24T12:00:26.573Z,12.40
2022-12-24T12:02:57.809Z,12.40
2022-12-24T12:05:28.520Z,12.50
2022-12-24T12:08:18.752Z,12.50
2022-12-24T12:10:46.914Z,12.50
2022-12-24T12:13:20.514Z,12.40
2022-12-24T12:15:53.105Z,12.30
2022-12-24T12:18:24.770Z,12.30
2022-12-24T12:20:56.536Z,12.30
2022-12-24T12:23:31.463Z,12.20
2022-12-24T12:26:07.121Z,12.10
2022-12-24T12:28:50.934Z,12.00
2022-12-24T12:31:49.028Z,11.90
2022-12-24T12:34:24.941Z,11.90
2022-12-24T12:36:58.415Z,11.90
2022-12-24T12:39:25.471Z,11.80
2022-12-24T12:42:02.743Z,11.80
2022-12-24T12:44:47.742Z,11.80
2022-12-24T12:47:39.251Z,11.90
2022-12-24T12:50:28.975Z,11.90
2022-12-24T12:53:05.408Z,11.90
2022-12-24T12:55:47.359Z,11.90
2022-12-24T12:58:36.103Z,11.80
2022-12-24T13:01:32.446Z,12.00
2022-12-24T13:04:37.799Z,12.10
2022-12-24T13:07:16.893Z,12.30
2022-12-24T13:09:53.559Z,12.30
2022-12-24T13:12:48.434Z,12.30
2022-12-24T13:15:41.434Z,12.10
2022-12-24T13:18:33.573Z,12.10
2022-12-24T13:21:01.139Z,12.00
2022-12-24T13:23:28.474Z,12.00
2022-12-24T13:25:59.196Z,11.90
2022-12-24T13:28:26.904Z,11.90
2022-12-24T13:31:13.711Z,11.90
2022-12-24T13:33:40.658Z,11.90
2022-12-24T13:36:14.114Z,11.80
2022-12-24T13:38:42.714Z,11.80
2022-12-24T13:41:42.168Z,11.80
2022-12-24T13:44:24.687Z,11.70
2022-12-24T13:46:59.790Z,11.60
2022-12-24T13:49:43.719Z,11.60
2022-12-24T13:52:18.862Z,11.60
2022-12-24T13:54:49.637Z,11.50
2022-12-24T13:57:44.952Z,11.50
2022-12-24T14:00:20.989Z,11.50
2022-12-24T14:02:58.052Z,11.50
2022-12-24T14:05:50.126Z,11.50
2022-12-24T14:08:27.071Z,11.50
2022-12-24T14:11:06.111Z,11.50
2022-12-24T14:13:39.215Z,11.50
2022-12-24T14:16:17.500Z,11.50
2022-12-24T14:19:04.347Z,11.50
2022-12-24T14:22:09.987Z,11.50
2022-12-24T14:24:44.687Z,11.50
2022-12-24T14:27:25.148Z,11.40
2022-12-24T14:30:16.766Z,11.40
2022-12-24T14:32:43.771Z,11.30
2022-12-24T14:35:13.659Z,11.20
2022-12-24T14:37:42.510Z,11.10
2022-12-24T14:40:16.604Z,11.10
2022-12-24T14:42:54.825Z,11.10
2022-12-24T14:45:38.399Z,11.00
2022-12-24T14:48:43.793Z,10.90
2022-12-24T14:51:28.124Z,10.90
2022-12-24T14:54:19.879Z,10.90
2022-12-24T14:56:47.308Z,10.80
2022-12-24T14:59:20.720Z,10.70
2022-12-24T15:01:47.556Z,10.60
2022-12-24T15:04:18.054Z,10.60
2022-12-24T15:06:53.237Z,10.60
2022-12-24T15:09:23.391Z,10.40
2022-12-24T15:11:53.663Z,10.30
2022-12-24T15:14:22.713Z,10.30
2022-12-24T15:17:13.326Z,10.30
2022-12-24T15:19:44.056Z,10.10
2022-12-24T15:22:30.845Z,10.10
2022-12-24T15:24:57.942Z,10.00
2022-12-24T15:27:26.865Z,9.90
2022-12-24T15:29:57.518Z,9.90
2022-12-24T15:32:24.541Z,9.70
2022-12-24T15:34:54.475Z,9.70
2022-12-24T15:37:27.143Z,9.60
2022-12-24T15:40:02.184Z,9.50
2022-12-24T15:42:29.172Z,9.40
2022-12-24T15:45:16.570Z,9.30
2022-12-24T15:47:54.201Z,9.20
2022-12-24T15:50:31.936Z,9.20
2022-12-24T15:53:19.873Z,9.10
2022-12-24T15:56:00.498Z,9.00
2022-12-24T15:58:29.943Z,8.90
2022-12-24T16:01:26.399Z,8.90
2022-12-24T16:03:53.280Z,8.90
2022-12-24T16:06:23.636Z,8.80
2022-12-24T16:08:53.459Z,8.70
2022-12-24T16:11:21.470Z,8.70
2022-12-24T16:13:51.202Z,8.60
2022-12-24T16:16:21.418Z,8.50
2022-12-24T16:18:56.951Z,8.40
2022-12-24T16:21:31.781Z,8.30
2022-12-24T16:24:20.317Z,8.20
2022-12-24T16:26:48.031Z,8.20
2022-12-24T16:29:15.579Z,8.10
2022-12-24T16:31:59.565Z,8.10
2022-12-24T16:34:31.462Z,8.10
2022-12-24T16:36:59.231Z,8.00
2022-12-24T16:39:30.864Z,8.00
2022-12-24T16:42:19.200Z,7.90
2022-12-24T16:44:46.400Z,7.90
2022-12-24T16:47:25.485Z,7.90
2022-12-24T16:49:52.186Z,7.80
2022-12-24T16:52:28.964Z,7.90
2022-12-24T16:54:56.852Z,7.80
2022-12-24T16:57:24.369Z,7.90
2022-12-24T16:59:51.988Z,7.90
2022-12-24T17:02:21.359Z,7.90
2022-12-24T17:04:49.480Z,7.80
2022-12-24T17:07:18.171Z,7.80
2022-12-24T17:09:45.147Z,7.70
2022-12-24T17:12:11.857Z,7.70
2022-12-24T17:14:39.427Z,7.70
2022-12-24T17:17:06.226Z,7.70
2022-12-24T17:19:32.918Z,7.70
2022-12-24T17:21:59.591Z,7.70
2022-12-24T17:24:26.196Z,7.60
2022-12-24T17:26:52.816Z,7.60
2022-12-24T17:29:19.807Z,7.60
2022-12-24T17:31:46.450Z,7.60
2022-12-24T17:34:13.162Z,7.60
2022-12-24T17:36:40.435Z,7.60
2022-12-24T17:39:07.638Z,7.60
2022-12-24T17:41:34.528Z,7.50
2022-12-24T17:44:01.258Z,7.50
2022-12-24T17:46:27.967Z,7.40
2022-12-24T17:48:55.587Z,7.40
2022-12-24T17:51:23.658Z,7.30
2022-12-24T17:53:50.778Z,7.30
2022-12-24T17:56:18.123Z,7.20
2022-12-24T17:58:45.718Z,7.30
2022-12-24T18:01:21.016Z,7.20
2022-12-24T18:03:49.692Z,7.10
2022-12-24T18:06:17.727Z,7.00
2022-12-24T18:08:46.546Z,7.00
2022-12-24T18:11:27.183Z,6.90
2022-12-24T18:13:55.719Z,6.90
2022-12-24T18:16:25.743Z,6.80
2022-12-24T18:18:53.219Z,6.80
2022-12-24T18:21:22.948Z,6.70
2022-12-24T18:23:51.246Z,6.70
2022-12-24T18:26:19.711Z,6.60
2022-12-24T18:28:47.252Z,6.70
2022-12-24T18:31:19.668Z,6.60
2022-12-24T18:33:48.610Z,6.70
2022-12-24T18:36:16.073Z,6.70
2022-12-24T18:38:42.749Z,6.60
2022-12-24T18:41:15.181Z,6.70
2022-12-24T18:43:41.860Z,6.60
2022-12-24T18:46:10.686Z,6.60
2022-12-24T18:48:37.467Z,6.60
2022-12-24T18:51:05.574Z,6.70
2022-12-24T18:53:32.343Z,6.70
2022-12-24T18:56:04.359Z,6.80
2022-12-24T18:58:31.085Z,6.80
2022-12-24T19:00:57.893Z,6.80
2022-12-24T19:03:25.198Z,6.70
2022-12-24T19:05:51.886Z,6.70
2022-12-24T19:08:56.032Z,6.70
2022-12-24T19:11:06.266Z,6.70
2022-12-24T19:13:33.519Z,6.60
2022-12-24T19:16:00.931Z,6.60
2022-12-24T19:18:28.137Z,6.70
2022-12-24T19:20:54.751Z,6.70
2022-12-24T19:23:21.794Z,6.70
2022-12-24T19:25:50.064Z,6.70
2022-12-24T19:28:19.183Z,6.70
2022-12-24T19:30:49.375Z,6.70
2022-12-24T19:33:16.259Z,6.70
2022-12-24T19:35:42.883Z,6.70
2022-12-24T19:38:10.397Z,6.60
2022-12-24T19:40:37.728Z,6.60
2022-12-24T19:43:06.399Z,6.60
2022-12-24T19:45:33.162Z,6.60
2022-12-24T19:48:00.209Z,6.60
2022-12-24T19:50:27.104Z,6.60
2022-12-24T19:52:53.721Z,6.60
2022-12-24T19:55:20.703Z,6.60
2022-12-24T19:57:47.331Z,6.70
2022-12-24T20:00:14.818Z,6.70
2022-12-24T20:02:41.725Z,6.80
2022-12-24T20:05:09.040Z,6.80
2022-12-24T20:07:36.542Z,6.80
2022-12-24T20:10:03.463Z,6.80
2022-12-24T20:12:30.279Z,6.80
2022-12-24T20:14:57.770Z,6.80
2022-12-24T20:17:24.878Z,6.80
2022-12-24T20:19:51.514Z,6.80
2022-12-24T20:22:18.652Z,6.80
2022-12-24T20:24:45.739Z,6.80
2022-12-24T20:27:12.484Z,6.90
2022-12-24T20:29:39.448Z,7.00
2022-12-24T20:32:06.269Z,7.00
2022-12-24T20:34:33.298Z,7.10
2022-12-24T20:37:00.431Z,7.20
2022-12-24T20:39:27.081Z,7.30
2022-12-24T20:41:54.166Z,7.30
2022-12-24T20:44:20.957Z,7.40
2022-12-24T20:46:47.827Z,7.50
2022-12-24T20:49:15.101Z,7.50
2022-12-24T20:51:41.820Z,7.60
2022-12-24T20:54:12.797Z,7.60
2022-12-24T20:56:39.545Z,7.60
2022-12-24T20:59:06.235Z,7.70
2022-12-24T21:01:34.168Z,7.70
2022-12-24T21:04:04.685Z,7.80
2022-12-24T21:06:33.379Z,7.80
2022-12-24T21:09:00.404Z,7.90
2022-12-24T21:11:45.867Z,7.90
2022-12-24T21:14:12.809Z,7.90
2022-12-24T21:16:41.140Z,8.00
2022-12-24T21:19:09.700Z,8.00
2022-12-24T21:21:37.085Z,8.10
2022-12-24T21:24:04.583Z,8.10
2022-12-24T21:26:32.296Z,8.20
2022-12-24T21:28:59.472Z,8.20
2022-12-24T21:31:26.385Z,8.20
2022-12-24T21:33:53.355Z,8.30
2022-12-24T21:36:20.939Z,8.30
2022-12-24T21:38:48.382Z,8.20
2022-12-24T21:41:18.196Z,8.20
2022-12-24T21:43:45.841Z,8.20
2022-12-24T21:46:19.337Z,8.20
2022-12-24T21:49:05.206Z,8.30
2022-12-24T21:51:32.975Z,8.20
2022-12-24T21:54:18.542Z,8.30
2022-12-24T21:57:03.915Z,8.30
2022-12-24T21:59:30.877Z,8.30
2022-12-24T22:01:58.636Z,8.30
2022-12-24T22:04:26.421Z,8.30
2022-12-24T22:07:13.281Z,8.40
2022-12-24T22:09:59.183Z,8.30
2022-12-24T22:12:28.872Z,8.30
2022-12-24T22:14:55.829Z,8.30
2022-12-24T22:17:25.447Z,8.40
2022-12-24T22:19:54.227Z,8.40
2022-12-24T22:22:21.942Z,8.40
2022-12-24T22:24:48.814Z,8.40
2022-12-24T22:27:16.043Z,8.40
2022-12-24T22:29:43.369Z,8.50
2022-12-24T22:32:10.228Z,8.50
2022-12-24T22:34:37.158Z,8.40
2022-12-24T22:37:04.590Z,8.50
2022-12-24T22:39:31.418Z,8.40
2022-12-24T22:41:58.423Z,8.40
2022-12-24T22:44:25.628Z,8.30
2022-12-24T22:46:52.695Z,8.30
2022-12-24T22:49:20.653Z,8.20
2022-12-24T22:51:47.567Z,8.20
2022-12-24T22:54:15.288Z,8.20
2022-12-24T22:56:42.346Z,8.20
2022-12-24T22:59:13.986Z,8.20
2022-12-24T23:01:43.449Z,8.10
2022-12-24T23:04:11.489Z,8.10
2022-12-24T23:06:39.531Z,8.10
2022-12-24T23:09:08.949Z,8.00
2022-12-24T23:11:36.290Z,8.00
2022-12-24T23:14:22.020Z,8.00
2022-12-24T23:16:48.911Z,8.00
2022-12-24T23:19:16.071Z,7.90
2022-12-24T23:21:43.048Z,7.90
2022-12-24T23:24:11.325Z,7.90
2022-12-24T23:26:38.457Z,7.90
2022-12-24T23:29:05.427Z,7.90
2022-12-24T23:31:34.847Z,7.80
2022-12-24T23:34:01.937Z,7.80
2022-12-24T23:36:28.978Z,7.80
2022-12-24T23:38:56.105Z,7.80
2022-12-24T23:41:23.131Z,7.70
2022-12-24T23:43:50.674Z,7.80
2022-12-24T23:46:19.678Z,7.80
2022-12-24T23:48:47.696Z,7.70
2022-12-24T23:51:23.166Z,7.80
2022-12-24T23:53:51.746Z,7.90
2022-12-24T23:56:18.958Z,7.90
2022-12-24T23:58:46.794Z,7.90
